Time;durP1;ratioP1;P1;durP2;ratioP2;P2;SDS_P1;SDS_P2;PMS_P1;PMS_P2;Temp;Humidity;BMP_temperature;BMP_pressure;BME280_temperature;BME280_humidity;BME280_pressure;Samples;Min_cycle;Max_cycle;Signal;HPM_P1;HPM_P2
2023/04/25 00:01:23;;;;;;;13.20;4.80;;;;;;;7.47;73.36;100730.88;3594143;39;20055;-67
2023/04/25 00:03:50;;;;;;;21.92;5.13;;;;;;;8.24;73.29;100861.63;3595562;39;20369;-68
2023/04/25 00:06:15;;;;;;;14.30;5.32;;;;;;;8.25;73.63;100862.50;3585215;39;20060;-68
2023/04/25 00:08:41;;;;;;;13.60;5.03;;;;;;;8.31;73.93;100872.91;3596113;39;20064;-68
2023/04/25 00:11:07;;;;;;;15.00;5.47;;;;;;;8.27;72.86;100868.63;3597113;39;20080;-67
2023/04/25 00:13:33;;;;;;;12.63;5.22;;;;;;;7.08;72.92;100674.94;3596735;39;20058;-68
2023/04/25 00:15:59;;;;;;;16.10;5.22;;;;;;;8.25;73.68;100876.75;3595679;39;20056;-68
2023/04/25 00:18:28;;;;;;;15.80;6.00;;;;;;;7.63;73.24;100779.09;3595483;39;20050;-68
2023/04/25 00:20:55;;;;;;;10.23;4.50;;;;;;;8.19;73.82;100878.88;3598254;39;20124;-67
2023/04/25 00:23:21;;;;;;;17.33;5.72;;;;;;;8.14;73.11;100877.28;3594414;39;20043;-68
2023/04/25 00:25:50;;;;;;;14.40;5.65;;;;;;;8.11;73.46;100882.81;3597311;39;20047;-68
2023/04/25 00:28:16;;;;;;;14.20;5.15;;;;;;;8.07;73.63;100881.22;3595950;39;20087;-68
2023/04/25 00:30:43;;;;;;;14.23;5.47;;;;;;;7.95;73.91;100865.78;3595249;39;20056;-68
2023/04/25 00:33:09;;;;;;;14.45;5.35;;;;;;;6.92;74.28;100691.72;3594256;39;20055;-68
2023/04/25 00:35:35;;;;;;;12.30;5.32;;;;;;;7.31;74.58;100756.66;3591555;39;20056;-68
2023/04/25 00:38:02;;;;;;;13.45;5.50;;;;;;;7.99;74.28;100872.75;3596389;39;20311;-67
2023/04/25 00:40:28;;;;;;;17.50;6.13;;;;;;;7.98;74.85;100876.34;3593777;39;20051;-67
2023/04/25 00:42:54;;;;;;;14.90;5.72;;;;;;;7.96;74.74;100872.91;3591457;39;20117;-68
2023/04/25 00:45:20;;;;;;;11.32;5.60;;;;;;;7.95;74.90;100875.63;3592461;39;20055;-67
2023/04/25 00:47:49;;;;;;;13.77;4.65;;;;;;;7.90;74.45;100867.84;3594334;39;20062;-68
2023/04/25 00:50:15;;;;;;;17.33;5.57;;;;;;;7.85;74.13;100876.09;3593317;39;20444;-67
2023/04/25 00:52:45;;;;;;;11.82;5.40;;;;;;;7.78;74.66;100873.81;3592755;39;20060;-68
2023/04/25 00:55:12;;;;;;;17.63;5.75;;;;;;;7.69;75.49;100859.06;3596216;39;20051;-67
2023/04/25 00:57:40;;;;;;;16.00;5.25;;;;;;;7.74;75.33;100874.88;3593958;39;20131;-67
2023/04/25 01:00:13;;;;;;;15.02;6.30;;;;;;;7.73;75.37;100873.16;3594521;39;20051;-67
2023/04/25 01:02:41;;;;;;;16.17;5.32;;;;;;;7.73;76.13;100883.84;3582592;39;20118;-67
2023/04/25 01:05:08;;;;;;;11.02;4.90;;;;;;;7.68;76.11;100871.59;3591820;39;20087;-68
2023/04/25 01:07:34;;;;;;;13.93;5.63;;;;;;;7.73;76.54;100874.00;3593633;39;20168;-68
2023/04/25 01:10:01;;;;;;;13.43;5.72;;;;;;;7.72;75.91;100879.47;3592044;39;20498;-68
2023/04/25 01:12:26;;;;;;;18.02;6.70;;;;;;;7.68;76.04;100874.25;3587831;39;20100;-67
2023/04/25 01:14:52;;;;;;;16.13;5.63;;;;;;;7.66;76.35;100865.44;3593516;39;20063;-67
2023/04/25 01:17:19;;;;;;;12.90;5.63;;;;;;;7.63;75.93;100870.06;3595354;39;20054;-67
2023/04/25 01:19:48;;;;;;;12.45;4.82;;;;;;;7.58;75.61;100875.66;3593279;39;20377;-68
2023/04/25 01:22:14;;;;;;;16.85;6.10;;;;;;;7.53;76.00;100875.00;3593712;39;20506;-67
2023/04/25 01:24:39;;;;;;;18.05;5.57;;;;;;;7.49;76.31;100878.78;3592329;39;20067;-69
2023/04/25 01:27:06;;;;;;;13.18;5.28;;;;;;;7.37;76.06;100868.66;3593094;39;20392;-67
2023/04/25 01:29:35;;;;;;;16.30;5.78;;;;;;;7.36;76.29;100880.31;3592982;39;20048;-67
2023/04/25 01:32:01;;;;;;;15.85;6.07;;;;;;;7.33;76.54;100883.13;3592307;39;20585;-67
2023/04/25 01:34:27;;;;;;;14.18;5.40;;;;;;;7.29;76.75;100881.50;3592831;39;20108;-68
2023/04/25 01:36:53;;;;;;;16.02;5.75;;;;;;;7.28;77.46;100879.78;3590595;39;20092;-68
2023/04/25 01:39:20;;;;;;;18.15;6.10;;;;;;;7.27;77.09;100886.09;3592030;39;20055;-67
2023/04/25 01:41:47;;;;;;;18.42;6.00;;;;;;;7.24;77.74;100889.75;3593682;39;20156;-67
2023/04/25 01:44:15;;;;;;;17.90;5.82;;;;;;;7.19;77.52;100881.94;3596055;39;20082;-68
2023/04/25 01:46:41;;;;;;;16.88;5.85;;;;;;;6.47;77.40;100758.84;3592186;39;20064;-67
2023/04/25 01:49:07;;;;;;;18.65;5.75;;;;;;;7.20;77.87;100883.69;3591598;39;20406;-68
2023/04/25 01:51:33;;;;;;;18.67;6.45;;;;;;;7.18;76.90;100890.06;3591366;39;20055;-67
2023/04/25 01:54:00;;;;;;;14.20;5.82;;;;;;;6.44;77.06;100764.34;3591748;39;20060;-68
2023/04/25 01:56:31;;;;;;;15.05;5.78;;;;;;;7.12;77.62;100885.84;3591948;39;20083;-67
2023/04/25 01:58:58;;;;;;;20.65;5.93;;;;;;;7.13;77.71;100890.25;3596096;39;20398;-68
2023/04/25 02:01:23;;;;;;;15.98;5.97;;;;;;;7.11;77.44;100885.94;3593643;39;20051;-67
2023/04/25 02:03:49;;;;;;;14.48;5.90;;;;;;;7.09;78.13;100883.31;3595222;39;20062;-67
2023/04/25 02:06:14;;;;;;;20.55;7.20;;;;;;;7.14;78.41;100894.69;3583772;39;20109;-67
2023/04/25 02:08:40;;;;;;;10.70;5.70;;;;;;;6.43;78.43;100767.94;3594283;39;20471;-67
2023/04/25 02:11:06;;;;;;;14.65;5.75;;;;;;;6.60;78.17;100800.09;3591536;39;20051;-67
2023/04/25 02:13:31;;;;;;;15.77;6.10;;;;;;;7.26;77.77;100913.75;3592987;39;20052;-67
2023/04/25 02:15:57;;;;;;;14.40;5.93;;;;;;;7.28;77.56;100911.88;3592054;39;20071;-67
2023/04/25 02:18:23;;;;;;;15.75;6.55;;;;;;;7.29;78.56;100908.25;3594184;39;20056;-67
2023/04/25 02:20:48;;;;;;;15.02;6.10;;;;;;;6.56;78.21;100779.78;3592050;39;20067;-67
2023/04/25 02:23:15;;;;;;;18.42;6.50;;;;;;;7.31;77.69;100906.38;3592468;39;20060;-68
2023/04/25 02:25:41;;;;;;;16.25;6.50;;;;;;;7.14;77.81;100873.28;3593808;39;20092;-67
2023/04/25 02:28:07;;;;;;;14.75;6.20;;;;;;;6.51;77.32;100765.78;3593779;39;20134;-67
2023/04/25 02:30:32;;;;;;;14.13;5.93;;;;;;;7.28;77.15;100906.53;3588423;39;20406;-67
2023/04/25 02:32:58;;;;;;;16.88;6.60;;;;;;;7.24;77.26;100907.63;3593830;39;20056;-67
2023/04/25 02:35:23;;;;;;;16.33;6.43;;;;;;;7.18;77.55;100909.63;3587210;39;20074;-67
2023/04/25 02:37:49;;;;;;;15.32;6.18;;;;;;;6.34;77.46;100776.38;3583825;39;20322;-67
2023/04/25 02:40:15;;;;;;;14.63;6.38;;;;;;;7.13;77.44;100914.31;3591665;39;20051;-67
2023/04/25 02:42:40;;;;;;;17.70;6.28;;;;;;;7.05;77.61;100915.63;3592305;39;20059;-67
2023/04/25 02:45:07;;;;;;;11.32;5.65;;;;;;;7.07;77.78;100914.63;3591984;39;20051;-67
2023/04/25 02:47:32;;;;;;;15.77;6.20;;;;;;;6.96;77.72;100900.88;3582699;39;20051;-67
2023/04/25 02:49:58;;;;;;;19.98;6.25;;;;;;;7.06;78.00;100915.53;3593219;39;20051;-67
2023/04/25 02:52:24;;;;;;;15.68;5.88;;;;;;;7.07;77.98;100913.72;3592696;39;20307;-67
2023/04/25 02:54:50;;;;;;;17.70;6.25;;;;;;;7.06;77.63;100914.66;3591754;39;20140;-67
2023/04/25 02:57:16;;;;;;;15.57;6.63;;;;;;;7.03;77.38;100907.66;3594516;39;20397;-68
2023/04/25 02:59:41;;;;;;;17.15;6.75;;;;;;;6.26;77.47;100782.06;3593535;39;20059;-67
2023/04/25 03:02:07;;;;;;;17.90;5.93;;;;;;;6.39;78.12;100798.41;3591622;39;20051;-67
2023/04/25 03:04:33;;;;;;;18.95;6.32;;;;;;;7.00;77.79;100907.78;3588357;39;20047;-68
2023/04/25 03:06:59;;;;;;;16.98;6.10;;;;;;;7.00;78.05;100910.47;3591108;39;20056;-68
2023/04/25 03:09:25;;;;;;;18.38;6.70;;;;;;;6.99;77.78;100919.44;3592361;39;20055;-67
2023/04/25 03:11:50;;;;;;;13.75;6.07;;;;;;;7.00;77.96;100918.47;3592332;39;20052;-68
2023/04/25 03:14:16;;;;;;;14.07;6.38;;;;;;;7.00;77.34;100921.16;3591446;39;20433;-67
2023/04/25 03:16:41;;;;;;;16.45;6.60;;;;;;;6.98;77.74;100917.72;3592189;39;20056;-68
2023/04/25 03:19:07;;;;;;;20.92;6.47;;;;;;;7.01;78.42;100922.03;3591685;39;20379;-67
2023/04/25 03:21:35;;;;;;;18.27;5.97;;;;;;;7.01;77.97;100922.91;3591048;39;20063;-68
2023/04/25 03:24:03;;;;;;;13.98;5.72;;;;;;;7.03;78.05;100926.38;3593712;39;20483;-67
2023/04/25 03:26:29;;;;;;;19.88;6.72;;;;;;;7.04;77.97;100921.88;3591489;39;20159;-68
2023/04/25 03:28:55;;;;;;;18.60;6.13;;;;;;;7.05;77.86;100927.16;3593771;39;20052;-67
2023/04/25 03:31:20;;;;;;;20.55;6.20;;;;;;;7.06;77.51;100918.22;3592234;39;20051;-67
2023/04/25 03:33:46;;;;;;;14.98;5.85;;;;;;;7.08;77.67;100918.16;3583904;39;20404;-67
2023/04/25 03:36:12;;;;;;;19.35;6.35;;;;;;;7.12;77.46;100917.94;3584277;39;20484;-68
2023/04/25 03:38:37;;;;;;;16.45;5.88;;;;;;;6.16;77.99;100765.59;3591579;39;20075;-67
2023/04/25 03:41:03;;;;;;;21.13;6.43;;;;;;;7.02;77.64;100911.28;3591540;39;20044;-67
2023/04/25 03:43:29;;;;;;;15.10;5.93;;;;;;;7.15;77.78;100927.63;3594221;39;20047;-67
2023/04/25 03:45:55;;;;;;;18.75;6.20;;;;;;;7.17;77.00;100925.75;3593712;39;20067;-67
2023/04/25 03:48:25;;;;;;;12.40;6.43;;;;;;;6.51;77.21;100805.84;3592315;39;20055;-67
2023/04/25 03:50:52;;;;;;;20.23;6.30;;;;;;;6.77;77.50;100852.75;3593305;39;20067;-67
2023/04/25 03:53:17;;;;;;;17.52;5.70;;;;;;;6.68;77.18;100834.47;3591572;39;20472;-67
2023/04/25 03:55:43;;;;;;;17.10;6.57;;;;;;;7.25;77.59;100922.72;3587303;39;20048;-67
2023/04/25 03:58:08;;;;;;;14.43;5.40;;;;;;;7.27;77.38;100926.19;3594674;39;20047;-67
2023/04/25 04:00:35;;;;;;;19.92;6.30;;;;;;;7.26;76.84;100929.78;3590555;39;20067;-67
2023/04/25 04:03:01;;;;;;;19.13;5.75;;;;;;;7.24;77.35;100932.53;3591288;39;20153;-67
2023/04/25 04:05:27;;;;;;;17.67;5.68;;;;;;;7.26;77.39;100940.47;3591740;39;20512;-67
2023/04/25 04:07:53;;;;;;;17.40;5.80;;;;;;;7.27;77.01;100943.09;3591820;39;20096;-67
2023/04/25 04:10:19;;;;;;;14.32;5.65;;;;;;;7.27;76.57;100940.44;3592395;39;20066;-67
2023/04/25 04:12:45;;;;;;;17.70;5.80;;;;;;;7.19;76.94;100927.38;3592229;39;20067;-67
2023/04/25 04:15:11;;;;;;;15.35;5.50;;;;;;;7.19;76.45;100935.41;3591596;39;20119;-67
2023/04/25 04:17:37;;;;;;;23.42;6.13;;;;;;;6.73;76.74;100857.34;3594925;39;20103;-67
2023/04/25 04:20:04;;;;;;;11.95;5.78;;;;;;;7.29;77.31;100940.34;3592948;39;20070;-67
2023/04/25 04:22:30;;;;;;;16.83;5.38;;;;;;;6.72;76.38;100857.41;3595822;39;20083;-67
2023/04/25 04:24:56;;;;;;;20.73;5.65;;;;;;;7.27;76.82;100952.94;3591038;39;20044;-67
2023/04/25 04:27:23;;;;;;;15.75;6.13;;;;;;;7.27;76.54;100948.44;3593279;39;20381;-67
2023/04/25 04:29:50;;;;;;;16.98;5.65;;;;;;;7.28;77.12;100960.00;3591148;39;20063;-67
2023/04/25 04:32:16;;;;;;;14.73;6.35;;;;;;;7.28;76.91;100958.19;3590930;39;20397;-66
2023/04/25 04:34:41;;;;;;;22.20;6.13;;;;;;;7.31;76.46;100962.53;3590160;39;20348;-67
2023/04/25 04:37:07;;;;;;;16.67;5.55;;;;;;;7.27;76.30;100952.94;3594030;39;20081;-66
2023/04/25 04:39:36;;;;;;;12.65;5.43;;;;;;;7.32;76.08;100964.25;3591753;39;20321;-67
2023/04/25 04:42:03;;;;;;;17.38;5.32;;;;;;;7.34;75.67;100957.91;3595832;39;20465;-67
2023/04/25 04:44:32;;;;;;;16.25;6.03;;;;;;;7.33;75.82;100960.66;3594470;39;20379;-67
2023/04/25 04:46:59;;;;;;;18.60;6.65;;;;;;;7.34;75.87;100965.06;3594441;39;20088;-67
2023/04/25 04:49:24;;;;;;;15.23;5.97;;;;;;;7.38;75.88;100978.22;3596523;39;20374;-67
2023/04/25 04:51:50;;;;;;;12.35;5.82;;;;;;;7.33;76.31;100958.00;3592152;39;20128;-67
2023/04/25 04:54:16;;;;;;;18.50;5.82;;;;;;;7.42;75.72;100976.25;3593406;39;20066;-67
2023/04/25 04:56:41;;;;;;;18.33;6.00;;;;;;;7.43;75.75;100980.69;3586750;39;20306;-66
2023/04/25 04:59:07;;;;;;;19.08;6.40;;;;;;;7.43;75.59;100980.69;3594123;39;20047;-67
2023/04/25 05:01:35;;;;;;;14.23;5.80;;;;;;;7.39;75.63;100979.06;3593376;39;20070;-67
2023/04/25 05:04:02;;;;;;;16.30;5.72;;;;;;;7.41;75.21;100993.25;3596215;39;20047;-67
2023/04/25 05:06:31;;;;;;;11.43;5.65;;;;;;;6.73;75.26;100873.38;3597105;39;20061;-67
2023/04/25 05:08:57;;;;;;;14.65;6.78;;;;;;;7.42;76.05;100992.31;3596851;39;20088;-67
2023/04/25 05:11:24;;;;;;;22.15;6.72;;;;;;;7.43;75.93;100996.75;3593678;39;20058;-67
2023/04/25 05:13:52;;;;;;;17.58;6.82;;;;;;;7.47;76.14;101003.69;3594248;39;20058;-68
2023/04/25 05:16:18;;;;;;;16.58;6.50;;;;;;;7.60;76.48;101004.84;3593513;39;20056;-67
2023/04/25 05:18:44;;;;;;;16.67;6.53;;;;;;;7.66;76.13;101009.91;3592526;39;20121;-67
2023/04/25 05:21:09;;;;;;;19.88;6.40;;;;;;;7.71;75.83;101004.34;3594187;39;20055;-67
2023/04/25 05:23:35;;;;;;;19.83;5.97;;;;;;;7.74;75.50;101016.69;3596760;39;20383;-67
2023/04/25 05:26:01;;;;;;;17.45;6.15;;;;;;;7.67;75.04;101022.34;3594885;39;20069;-66
2023/04/25 05:28:26;;;;;;;14.77;6.60;;;;;;;7.71;76.06;101027.53;3597778;39;20071;-67
2023/04/25 05:30:52;;;;;;;11.25;5.70;;;;;;;7.26;75.97;100944.00;3594223;39;20052;-67
2023/04/25 05:33:18;;;;;;;18.75;6.43;;;;;;;7.65;75.67;101002.81;3594820;39;20056;-67
2023/04/25 05:35:45;;;;;;;17.08;6.10;;;;;;;7.83;74.92;101010.91;3593313;39;20056;-66
2023/04/25 05:38:13;;;;;;;16.52;6.72;;;;;;;7.86;75.66;101024.16;3593508;39;20052;-67
2023/04/25 05:40:38;;;;;;;15.73;5.68;;;;;;;7.05;74.87;100888.88;3594153;39;20356;-66
2023/04/25 05:43:04;;;;;;;14.05;6.22;;;;;;;7.12;74.38;100907.22;3596699;39;20063;-67
2023/04/25 05:45:30;;;;;;;18.80;6.43;;;;;;;7.89;75.52;101024.00;3593554;39;20211;-67
2023/04/25 05:47:55;;;;;;;16.40;5.75;;;;;;;7.96;74.70;101032.59;3593076;39;20087;-67
2023/04/25 05:50:21;;;;;;;18.65;6.72;;;;;;;7.98;74.43;101031.59;3593853;39;20048;-67
2023/04/25 05:52:47;;;;;;;19.42;6.40;;;;;;;8.05;74.40;101033.03;3593204;39;20394;-67
2023/04/25 05:55:13;;;;;;;14.77;6.05;;;;;;;8.10;73.98;101041.72;3596583;39;20405;-67
2023/04/25 05:57:41;;;;;;;21.15;6.85;;;;;;;8.13;73.81;101036.22;3596748;39;20058;-67
2023/04/25 06:00:09;;;;;;;13.38;6.25;;;;;;;8.23;74.32;101052.72;3591504;39;20420;-67
2023/04/25 06:02:34;;;;;;;20.98;7.05;;;;;;;8.29;74.43;101063.13;3593471;39;20091;-66
2023/04/25 06:05:03;;;;;;;16.70;5.38;;;;;;;8.35;73.07;101064.66;3593309;39;20123;-67
2023/04/25 06:07:32;;;;;;;17.52;5.95;;;;;;;8.40;72.28;101065.31;3599421;39;20043;-67
2023/04/25 06:09:58;;;;;;;15.95;5.85;;;;;;;7.68;71.40;100935.78;3598504;39;20083;-67
2023/04/25 06:12:23;;;;;;;18.55;5.72;;;;;;;8.48;71.03;101063.13;3593301;39;20052;-68
2023/04/25 06:14:49;;;;;;;14.95;6.20;;;;;;;8.55;70.35;101069.91;3593728;39;20413;-67
2023/04/25 06:17:15;;;;;;;16.75;5.28;;;;;;;8.53;70.27;101069.13;3596610;39;20051;-67
2023/04/25 06:19:40;;;;;;;19.17;5.00;;;;;;;8.62;69.55;101072.28;3593400;39;20056;-67
2023/04/25 06:22:07;;;;;;;16.10;5.78;;;;;;;8.57;70.08;101068.03;3594540;39;20671;-65
2023/04/25 06:24:33;;;;;;;15.85;5.13;;;;;;;8.61;69.07;101082.13;3594813;39;20044;-66
2023/04/25 06:27:00;;;;;;;14.68;5.25;;;;;;;8.60;69.69;101083.97;3593200;39;20055;-66
2023/04/25 06:29:25;;;;;;;11.77;4.15;;;;;;;8.59;68.08;101079.56;3593369;39;20060;-66
2023/04/25 06:31:51;;;;;;;13.68;4.38;;;;;;;8.65;68.31;101081.03;3595953;39;20401;-66
2023/04/25 06:34:17;;;;;;;14.00;4.75;;;;;;;8.28;67.93;100988.22;3596345;39;20064;-66
2023/04/25 06:36:44;;;;;;;10.20;3.88;;;;;;;8.96;67.49;101075.00;3593189;39;20058;-65
2023/04/25 06:39:09;;;;;;;10.63;3.90;;;;;;;8.45;65.56;100963.28;3597997;39;20062;-66
2023/04/25 06:41:35;;;;;;;10.65;3.33;;;;;;;9.33;64.52;101088.34;3593195;39;20060;-65
2023/04/25 06:44:01;;;;;;;12.35;3.50;;;;;;;9.58;62.37;101087.88;3597285;39;20105;-66
2023/04/25 06:46:26;;;;;;;8.60;2.85;;;;;;;9.76;60.43;101082.38;3595818;39;20063;-66
2023/04/25 06:48:52;;;;;;;8.93;2.65;;;;;;;10.10;58.86;101101.16;3595511;39;20066;-66
2023/04/25 06:51:17;;;;;;;5.35;2.17;;;;;;;10.28;58.00;101110.94;3597436;39;20074;-66
2023/04/25 06:53:43;;;;;;;7.88;2.40;;;;;;;10.39;57.56;101103.09;3595779;39;20082;-66
2023/04/25 06:56:09;;;;;;;6.50;2.13;;;;;;;10.58;55.11;101110.13;3595049;39;20063;-66
2023/04/25 06:58:34;;;;;;;5.78;2.10;;;;;;;10.74;54.87;101107.44;3596595;39;20401;-66
2023/04/25 07:01:00;;;;;;;7.35;2.45;;;;;;;10.90;54.41;101109.13;3589757;39;20066;-66
2023/04/25 07:03:25;;;;;;;9.45;2.42;;;;;;;11.07;53.82;101108.16;3593304;39;20055;-66
2023/04/25 07:05:51;;;;;;;10.52;2.88;;;;;;;11.15;54.17;101108.53;3591382;39;20176;-66
2023/04/25 07:08:17;;;;;;;8.07;2.75;;;;;;;11.12;53.90;101118.63;3592180;39;20342;-66
2023/04/25 07:10:43;;;;;;;10.00;2.50;;;;;;;11.19;52.99;101106.53;3594735;39;20063;-66
2023/04/25 07:13:08;;;;;;;8.00;2.40;;;;;;;11.25;53.17;101116.91;3594828;39;20060;-66
2023/04/25 07:15:35;;;;;;;9.68;2.28;;;;;;;11.27;53.93;101117.72;3592700;39;20055;-66
2023/04/25 07:18:01;;;;;;;7.32;2.35;;;;;;;11.44;52.19;101121.19;3592429;39;20129;-66
2023/04/25 07:20:27;;;;;;;6.30;1.85;;;;;;;11.59;51.56;101121.13;3594164;39;20054;-66
2023/04/25 07:22:53;;;;;;;6.80;2.35;;;;;;;11.75;50.79;101137.22;3593317;39;20047;-66
2023/04/25 07:25:19;;;;;;;8.43;2.13;;;;;;;11.91;50.11;101133.59;3592764;39;20062;-67
2023/04/25 07:27:45;;;;;;;5.80;2.10;;;;;;;12.05;50.06;101136.28;3592206;39;20058;-66
2023/04/25 07:30:12;;;;;;;7.93;2.28;;;;;;;12.22;49.32;101133.41;3590950;39;20287;-66
2023/04/25 07:32:39;;;;;;;6.32;1.88;;;;;;;12.36;50.25;101129.81;3597519;39;20040;-66
2023/04/25 07:35:06;;;;;;;8.40;2.35;;;;;;;12.58;48.40;101140.06;3593861;39;20063;-66
2023/04/25 07:37:33;;;;;;;7.63;2.20;;;;;;;12.62;48.92;101135.34;3595422;39;20048;-66
2023/04/25 07:39:59;;;;;;;6.40;2.08;;;;;;;12.29;47.64;101132.03;3598697;39;20087;-66
2023/04/25 07:42:25;;;;;;;8.65;2.20;;;;;;;12.15;48.65;101148.22;3598650;39;20620;-66
2023/04/25 07:44:51;;;;;;;6.40;1.95;;;;;;;11.95;49.34;101151.28;3594415;39;20054;-67
2023/04/25 07:47:18;;;;;;;7.53;2.28;;;;;;;11.67;49.61;101146.72;3593252;39;20040;-66
2023/04/25 07:49:45;;;;;;;11.43;2.15;;;;;;;10.92;49.91;101039.13;3592646;39;20107;-66
2023/04/25 07:52:10;;;;;;;9.35;2.03;;;;;;;10.71;50.17;101037.69;3595377;39;20089;-66
2023/04/25 07:54:36;;;;;;;5.20;1.88;;;;;;;11.39;50.60;101160.03;3597747;39;20094;-66
2023/04/25 07:57:02;;;;;;;9.90;3.47;;;;;;;10.95;49.67;101063.13;3597008;39;20071;-67
2023/04/25 07:59:28;;;;;;;9.00;2.30;;;;;;;11.44;49.87;101175.03;3593085;39;20086;-66
2023/04/25 08:01:53;;;;;;;7.38;1.80;;;;;;;11.27;49.93;101160.75;3595049;39;20060;-68
2023/04/25 08:04:19;;;;;;;9.52;2.08;;;;;;;11.20;50.63;101175.56;3587711;39;20066;-65
2023/04/25 08:06:45;;;;;;;6.60;2.13;;;;;;;11.15;50.95;101172.25;3589932;39;20394;-65
2023/04/25 08:09:11;;;;;;;5.00;1.83;;;;;;;11.07;50.31;101172.72;3595948;39;20399;-66
2023/04/25 08:11:38;;;;;;;10.02;2.28;;;;;;;11.11;51.34;101181.47;3592470;39;20051;-66
2023/04/25 08:14:03;;;;;;;7.65;2.05;;;;;;;11.20;50.74;101186.31;3595509;39;20068;-66
2023/04/25 08:16:30;;;;;;;8.32;2.00;;;;;;;10.10;50.01;100985.66;3596699;39;20055;-65
2023/04/25 08:18:55;;;;;;;8.27;2.50;;;;;;;11.27;52.08;101181.44;3592652;39;20052;-66
2023/04/25 08:21:21;;;;;;;4.20;1.75;;;;;;;11.26;51.33;101194.03;3592437;39;20059;-66
2023/04/25 08:23:46;;;;;;;6.22;1.98;;;;;;;11.20;50.13;101199.78;3591407;39;20052;-66
2023/04/25 08:26:12;;;;;;;11.73;2.53;;;;;;;11.17;51.64;101196.41;3582377;40;20055;-67
2023/04/25 08:28:38;;;;;;;8.88;2.20;;;;;;;11.09;51.48;101195.00;3593003;39;20128;-66
2023/04/25 08:31:04;;;;;;;7.93;2.13;;;;;;;11.15;50.78;101205.41;3595180;39;20059;-66
2023/04/25 08:33:30;;;;;;;9.25;2.13;;;;;;;11.22;51.97;101211.28;3595830;39;20298;-66
2023/04/25 08:35:56;;;;;;;8.18;1.90;;;;;;;11.29;51.53;101207.31;3594159;39;20047;-66
2023/04/25 08:38:22;;;;;;;6.97;2.53;;;;;;;11.51;50.80;101233.81;3594037;39;20478;-66
2023/04/25 08:40:53;;;;;;;11.82;2.15;;;;;;;11.63;50.53;101227.69;3594514;39;20391;-66
2023/04/25 08:43:20;;;;;;;7.30;2.10;;;;;;;11.69;50.27;101221.06;3594690;39;20060;-67
2023/04/25 08:45:47;;;;;;;7.00;2.25;;;;;;;11.75;50.34;101231.47;3594163;39;20378;-67
2023/04/25 08:48:15;;;;;;;6.53;2.05;;;;;;;11.92;50.10;101226.91;3586982;39;20051;-66
2023/04/25 08:50:44;;;;;;;8.75;2.90;;;;;;;12.12;49.14;101229.28;3593890;39;20044;-66
2023/04/25 08:53:19;;;;;;;8.93;2.28;;;;;;;12.31;50.32;101229.84;3594600;39;20068;-68
2023/04/25 08:55:46;;;;;;;4.88;2.10;;;;;;;12.42;48.93;101239.94;3593136;39;20082;-66
2023/04/25 08:58:13;;;;;;;8.85;1.88;;;;;;;12.39;49.64;101236.59;3599056;39;20166;-66
2023/04/25 09:00:39;;;;;;;7.55;2.03;;;;;;;12.48;48.71;101244.97;3594004;39;20044;-66
2023/04/25 09:03:05;;;;;;;6.13;1.75;;;;;;;12.40;46.95;101251.78;3584964;39;20050;-66
2023/04/25 09:05:34;;;;;;;7.35;2.25;;;;;;;12.35;48.39;101253.94;3597189;39;20060;-66
2023/04/25 09:08:00;;;;;;;4.80;1.75;;;;;;;11.96;48.15;101180.00;3594125;39;20056;-66
2023/04/25 09:10:26;;;;;;;8.45;2.13;;;;;;;11.87;46.81;101165.25;3595489;39;20132;-66
2023/04/25 09:13:06;;;;;;;6.18;2.10;;;;;;;12.61;46.66;101280.13;3590007;39;20044;-66
2023/04/25 09:15:32;;;;;;;9.02;2.17;;;;;;;12.75;46.69;101276.56;3596443;39;20374;-67
2023/04/25 09:17:59;;;;;;;11.93;1.98;;;;;;;12.92;46.94;101265.53;3599192;39;20318;-67
2023/04/25 09:20:25;;;;;;;6.47;1.95;;;;;;;12.68;45.85;101210.47;3595257;39;20051;-67
2023/04/25 09:23:05;;;;;;;7.07;1.95;;;;;;;13.03;46.73;101262.13;3597457;39;20054;-66
2023/04/25 09:25:39;;;;;;;6.82;1.52;;;;;;;13.43;44.55;101283.84;3586650;39;20160;-67
2023/04/25 09:28:06;;;;;;;6.70;1.50;;;;;;;13.51;44.07;101288.72;3588408;39;20058;-67
2023/04/25 09:30:36;;;;;;;4.88;1.60;;;;;;;13.59;43.97;101289.94;3595757;39;20055;-67
2023/04/25 09:33:08;;;;;;;6.60;1.80;;;;;;;13.74;42.98;101295.31;3595417;39;20066;-67
2023/04/25 09:35:42;;;;;;;8.60;2.28;;;;;;;13.83;44.30;101286.59;3596003;39;20055;-68
2023/04/25 09:38:13;;;;;;;4.82;1.75;;;;;;;13.92;42.75;101285.91;3595594;39;20409;-67
2023/04/25 09:40:41;;;;;;;3.75;1.35;;;;;;;13.90;42.16;101277.06;3594690;39;20118;-67
2023/04/25 09:43:21;;;;;;;3.30;1.35;;;;;;;13.99;42.30;101286.41;3596302;39;20047;-67
2023/04/25 09:45:48;;;;;;;4.68;1.55;;;;;;;13.90;42.19;101264.41;3587875;39;20055;-66
2023/04/25 09:48:22;;;;;;;6.55;1.90;;;;;;;14.11;41.06;101296.34;3594028;39;20470;-66
2023/04/25 09:51:10;;;;;;;7.75;1.90;;;;;;;14.28;41.72;101301.44;3594095;39;20052;-66
2023/04/25 09:53:39;;;;;;;12.63;2.22;;;;;;;14.39;42.14;101300.69;3593559;39;20192;-66
2023/04/25 09:56:09;;;;;;;6.07;2.08;;;;;;;13.85;42.70;101177.38;3592677;39;20105;-66
2023/04/25 09:58:38;;;;;;;4.82;1.58;;;;;;;14.69;41.17;101292.28;3594455;39;20060;-66
2023/04/25 10:01:10;;;;;;;7.90;1.85;;;;;;;14.99;40.69;101291.88;3594019;39;20055;-66
2023/04/25 10:03:39;;;;;;;4.75;1.58;;;;;;;14.94;40.65;101299.50;3594200;39;20298;-67
2023/04/25 10:06:16;;;;;;;6.35;1.83;;;;;;;14.73;41.19;101303.75;3593907;39;20345;-66
2023/04/25 10:08:43;;;;;;;7.88;1.98;;;;;;;14.38;40.82;101307.94;3594403;39;20071;-66
2023/04/25 10:11:09;;;;;;;5.63;1.90;;;;;;;14.20;40.92;101309.22;3590137;39;20043;-66
2023/04/25 10:13:36;;;;;;;7.63;1.90;;;;;;;14.25;42.20;101287.28;3594521;39;20059;-66
2023/04/25 10:16:04;;;;;;;5.15;2.05;;;;;;;14.63;40.44;101299.00;3596531;39;20059;-67
2023/04/25 10:18:32;;;;;;;2.42;1.17;;;;;;;14.66;39.09;101299.75;3595408;39;20313;-67
2023/04/25 10:21:02;;;;;;;3.60;1.40;;;;;;;14.37;37.53;101229.63;3593243;39;20064;-67
2023/04/25 10:23:31;;;;;;;4.53;1.58;;;;;;;15.20;37.35;101292.16;3588553;40;20095;-67
2023/04/25 10:25:58;;;;;;;3.92;1.65;;;;;;;15.49;35.90;101302.69;3594651;39;20067;-67
2023/04/25 10:28:24;;;;;;;6.22;1.80;;;;;;;15.78;36.50;101295.09;3593710;39;20349;-67
2023/04/25 10:31:00;;;;;;;4.32;1.45;;;;;;;15.91;36.79;101301.28;3595592;39;20084;-68
2023/04/25 10:33:38;;;;;;;2.70;1.35;;;;;;;16.25;36.54;101301.41;3593449;39;20309;-67
2023/04/25 10:36:15;;;;;;;5.55;1.45;;;;;;;15.84;33.51;101216.00;3593179;39;20420;-67
2023/04/25 10:38:44;;;;;;;4.97;1.38;;;;;;;16.29;34.06;101319.16;3593510;39;20095;-67
2023/04/25 10:41:12;;;;;;;4.95;1.40;;;;;;;16.02;34.40;101312.19;3595402;39;20055;-67
2023/04/25 10:43:46;;;;;;;4.47;1.30;;;;;;;15.65;34.22;101318.66;3598377;39;20059;-67
2023/04/25 10:46:23;;;;;;;4.00;1.27;;;;;;;15.38;35.45;101317.03;3596202;39;20378;-67
2023/04/25 10:48:53;;;;;;;3.60;1.27;;;;;;;15.16;36.75;101315.06;3594552;39;20084;-67
2023/04/25 10:51:33;;;;;;;4.78;1.50;;;;;;;14.91;36.78;101313.25;3593147;39;20060;-67
2023/04/25 10:54:06;;;;;;;5.68;1.38;;;;;;;14.85;38.31;101319.13;3592853;39;20221;-67
2023/04/25 10:56:40;;;;;;;4.87;1.83;;;;;;;15.14;39.32;101310.72;3592713;39;20110;-67
2023/04/25 10:59:15;;;;;;;5.75;2.03;;;;;;;15.49;38.96;101308.97;3596503;39;20265;-68
2023/04/25 11:01:44;;;;;;;5.13;1.52;;;;;;;15.90;37.75;101307.72;3595307;39;20051;-67
2023/04/25 11:04:29;;;;;;;3.35;1.55;;;;;;;16.18;35.76;101309.16;3595308;39;20077;-67
2023/04/25 11:07:09;;;;;;;3.47;1.65;;;;;;;15.95;35.38;101308.22;3592816;39;20062;-67
2023/04/25 11:09:39;;;;;;;5.50;1.85;;;;;;;15.50;36.97;101316.09;3591959;39;20124;-67
2023/04/25 11:12:09;;;;;;;4.80;1.50;;;;;;;15.11;37.86;101324.47;3593929;39;20327;-68
2023/04/25 11:14:35;;;;;;;5.05;1.42;;;;;;;14.67;38.98;101328.53;3594344;39;20059;-67
2023/04/25 11:17:02;;;;;;;5.47;1.55;;;;;;;13.51;40.56;101205.88;3594025;39;20339;-67
2023/04/25 11:19:29;;;;;;;5.40;1.73;;;;;;;13.88;41.73;101327.66;3593526;39;20051;-67
2023/04/25 11:22:00;;;;;;;8.00;1.85;;;;;;;13.62;44.43;101332.09;3590829;39;20062;-66
2023/04/25 11:24:30;;;;;;;7.18;1.60;;;;;;;13.27;46.47;101350.63;3587542;39;20099;-65